sensor_id;sensor_type;location;lat;lon;timestamp;P1;durP1;ratioP1;P2;durP2;ratioP2
77287;SDS011;66345;42.694;23.346;2022-12-24T00:01:18;46.25;;;22.83;;
77287;SDS011;66345;42.694;23.346;2022-12-24T00:03:43;40.87;;;20.97;;
77287;SDS011;66345;42.694;23.346;2022-12-24T00:06:12;46.43;;;21.80;;
77287;SDS011;66345;42.694;23.346;2022-12-24T00:08:41;37.95;;;20.33;;
77287;SDS011;66345;42.694;23.346;2022-12-24T00:11:06;38.47;;;20.20;;
77287;SDS011;66345;42.694;23.346;2022-12-24T00:13:32;40.83;;;20.37;;
77287;SDS011;66345;42.694;23.346;2022-12-24T00:15:57;40.80;;;20.15;;
77287;SDS011;66345;42.694;23.346;2022-12-24T00:18:23;41.37;;;20.73;;
77287;SDS011;66345;42.694;23.346;2022-12-24T00:20:48;41.72;;;21.38;;
77287;SDS011;66345;42.694;23.346;2022-12-24T00:23:14;42.33;;;20.57;;
77287;SDS011;66345;42.694;23.346;2022-12-24T00:25:41;44.28;;;19.77;;
77287;SDS011;66345;42.694;23.346;2022-12-24T00:28:06;42.30;;;19.87;;
77287;SDS011;66345;42.694;23.346;2022-12-24T00:30:32;39.90;;;19.42;;
77287;SDS011;66345;42.694;23.346;2022-12-24T00:32:57;30.07;;;14.90;;
77287;SDS011;66345;42.694;23.346;2022-12-24T00:35:22;35.17;;;16.53;;
77287;SDS011;66345;42.694;23.346;2022-12-24T00:37:48;32.67;;;16.33;;
77287;SDS011;66345;42.694;23.346;2022-12-24T00:40:15;46.20;;;21.23;;
77287;SDS011;66345;42.694;23.346;2022-12-24T00:42:41;125.75;;;55.33;;
77287;SDS011;66345;42.694;23.346;2022-12-24T00:45:07;202.67;;;91.90;;
77287;SDS011;66345;42.694;23.346;2022-12-24T00:47:33;226.68;;;103.85;;
77287;SDS011;66345;42.694;23.346;2022-12-24T00:49:59;227.10;;;103.77;;
77287;SDS011;66345;42.694;23.346;2022-12-24T00:52:24;221.35;;;105.60;;
77287;SDS011;66345;42.694;23.346;2022-12-24T00:54:49;220.57;;;104.43;;
77287;SDS011;66345;42.694;23.346;2022-12-24T00:57:15;228.73;;;106.33;;
77287;SDS011;66345;42.694;23.346;2022-12-24T00:59:41;234.57;;;107.32;;
77287;SDS011;66345;42.694;23.346;2022-12-24T01:02:06;234.53;;;108.60;;
77287;SDS011;66345;42.694;23.346;2022-12-24T01:04:32;219.93;;;102.83;;
77287;SDS011;66345;42.694;23.346;2022-12-24T01:07:15;229.10;;;105.43;;
77287;SDS011;66345;42.694;23.346;2022-12-24T01:09:41;220.23;;;100.97;;
77287;SDS011;66345;42.694;23.346;2022-12-24T01:12:06;231.17;;;103.60;;
77287;SDS011;66345;42.694;23.346;2022-12-24T01:14:32;215.60;;;100.05;;
77287;SDS011;66345;42.694;23.346;2022-12-24T01:16:57;206.50;;;97.07;;
77287;SDS011;66345;42.694;23.346;2022-12-24T01:19:23;206.07;;;93.23;;
77287;SDS011;66345;42.694;23.346;2022-12-24T01:21:48;207.57;;;94.50;;
77287;SDS011;66345;42.694;23.346;2022-12-24T01:24:14;201.35;;;93.47;;
77287;SDS011;66345;42.694;23.346;2022-12-24T01:26:40;205.88;;;96.10;;
77287;SDS011;66345;42.694;23.346;2022-12-24T01:29:06;192.50;;;91.47;;
77287;SDS011;66345;42.694;23.346;2022-12-24T01:31:32;190.93;;;89.53;;
77287;SDS011;66345;42.694;23.346;2022-12-24T01:33:57;189.73;;;89.07;;
77287;SDS011;66345;42.694;23.346;2022-12-24T01:36:22;182.10;;;88.95;;
77287;SDS011;66345;42.694;23.346;2022-12-24T01:38:48;190.23;;;82.97;;
77287;SDS011;66345;42.694;23.346;2022-12-24T01:41:18;178.90;;;84.63;;
77287;SDS011;66345;42.694;23.346;2022-12-24T01:44:21;192.57;;;86.68;;
77287;SDS011;66345;42.694;23.346;2022-12-24T01:46:51;181.15;;;84.88;;
77287;SDS011;66345;42.694;23.346;2022-12-24T01:49:21;196.60;;;87.60;;
77287;SDS011;66345;42.694;23.346;2022-12-24T01:51:48;197.10;;;92.00;;
77287;SDS011;66345;42.694;23.346;2022-12-24T01:54:23;197.45;;;93.00;;
77287;SDS011;66345;42.694;23.346;2022-12-24T01:56:58;191.48;;;88.63;;
77287;SDS011;66345;42.694;23.346;2022-12-24T01:59:31;187.40;;;86.03;;
77287;SDS011;66345;42.694;23.346;2022-12-24T02:01:58;182.63;;;83.50;;
77287;SDS011;66345;42.694;23.346;2022-12-24T02:04:28;177.02;;;80.65;;
77287;SDS011;66345;42.694;23.346;2022-12-24T02:07:01;166.65;;;78.32;;
77287;SDS011;66345;42.694;23.346;2022-12-24T02:09:26;172.15;;;79.53;;
77287;SDS011;66345;42.694;23.346;2022-12-24T02:11:52;178.45;;;81.35;;
77287;SDS011;66345;42.694;23.346;2022-12-24T02:14:18;178.13;;;81.15;;
77287;SDS011;66345;42.694;23.346;2022-12-24T03:22:56;171.48;;;77.30;;
77287;SDS011;66345;42.694;23.346;2022-12-24T03:25:22;159.75;;;72.05;;
77287;SDS011;66345;42.694;23.346;2022-12-24T03:27:49;166.50;;;75.57;;
77287;SDS011;66345;42.694;23.346;2022-12-24T03:30:16;155.43;;;69.18;;
77287;SDS011;66345;42.694;23.346;2022-12-24T03:32:42;161.30;;;73.32;;
77287;SDS011;66345;42.694;23.346;2022-12-24T03:35:10;159.82;;;72.43;;
77287;SDS011;66345;42.694;23.346;2022-12-24T03:37:36;151.00;;;71.90;;
77287;SDS011;66345;42.694;23.346;2022-12-24T03:40:02;171.10;;;75.78;;
77287;SDS011;66345;42.694;23.346;2022-12-24T03:51:20;159.97;;;70.03;;
77287;SDS011;66345;42.694;23.346;2022-12-24T03:53:48;151.43;;;71.22;;
77287;SDS011;66345;42.694;23.346;2022-12-24T03:56:14;155.15;;;72.50;;
77287;SDS011;66345;42.694;23.346;2022-12-24T03:58:40;160.57;;;72.28;;
77287;SDS011;66345;42.694;23.346;2022-12-24T04:01:05;156.23;;;71.30;;
77287;SDS011;66345;42.694;23.346;2022-12-24T04:03:31;158.80;;;71.13;;
77287;SDS011;66345;42.694;23.346;2022-12-24T04:06:00;152.27;;;70.82;;
77287;SDS011;66345;42.694;23.346;2022-12-24T04:08:27;150.63;;;66.53;;
77287;SDS011;66345;42.694;23.346;2022-12-24T04:10:53;145.38;;;67.65;;
77287;SDS011;66345;42.694;23.346;2022-12-24T04:13:18;154.85;;;70.25;;
77287;SDS011;66345;42.694;23.346;2022-12-24T04:15:44;153.05;;;68.30;;
77287;SDS011;66345;42.694;23.346;2022-12-24T04:18:10;150.70;;;71.80;;
77287;SDS011;66345;42.694;23.346;2022-12-24T04:20:35;159.00;;;71.45;;
77287;SDS011;66345;42.694;23.346;2022-12-24T04:23:00;153.20;;;68.60;;
77287;SDS011;66345;42.694;23.346;2022-12-24T04:25:26;158.43;;;69.63;;
77287;SDS011;66345;42.694;23.346;2022-12-24T04:27:51;145.27;;;68.23;;
77287;SDS011;66345;42.694;23.346;2022-12-24T04:30:17;154.00;;;68.82;;
77287;SDS011;66345;42.694;23.346;2022-12-24T04:32:42;145.43;;;67.93;;
77287;SDS011;66345;42.694;23.346;2022-12-24T04:35:08;139.33;;;66.50;;
77287;SDS011;66345;42.694;23.346;2022-12-24T04:37:33;138.82;;;64.68;;
77287;SDS011;66345;42.694;23.346;2022-12-24T04:39:59;148.13;;;65.33;;
77287;SDS011;66345;42.694;23.346;2022-12-24T04:42:25;136.87;;;58.17;;
77287;SDS011;66345;42.694;23.346;2022-12-24T04:44:50;108.13;;;49.93;;
77287;SDS011;66345;42.694;23.346;2022-12-24T04:47:15;91.50;;;40.00;;
77287;SDS011;66345;42.694;23.346;2022-12-24T04:49:41;84.97;;;38.27;;
77287;SDS011;66345;42.694;23.346;2022-12-24T04:52:06;79.93;;;34.40;;
77287;SDS011;66345;42.694;23.346;2022-12-24T04:54:32;73.32;;;34.45;;
77287;SDS011;66345;42.694;23.346;2022-12-24T04:56:58;77.80;;;34.63;;
77287;SDS011;66345;42.694;23.346;2022-12-24T04:59:23;78.00;;;34.37;;
77287;SDS011;66345;42.694;23.346;2022-12-24T05:01:49;77.80;;;34.87;;
77287;SDS011;66345;42.694;23.346;2022-12-24T05:04:15;81.03;;;35.15;;
77287;SDS011;66345;42.694;23.346;2022-12-24T05:06:41;80.93;;;34.90;;
77287;SDS011;66345;42.694;23.346;2022-12-24T05:09:06;71.03;;;34.83;;
77287;SDS011;66345;42.694;23.346;2022-12-24T05:11:32;87.07;;;36.77;;
77287;SDS011;66345;42.694;23.346;2022-12-24T05:13:58;90.83;;;38.90;;
77287;SDS011;66345;42.694;23.346;2022-12-24T05:16:23;85.93;;;40.22;;
77287;SDS011;66345;42.694;23.346;2022-12-24T05:18:49;88.50;;;39.47;;
77287;SDS011;66345;42.694;23.346;2022-12-24T05:21:16;94.35;;;41.28;;
77287;SDS011;66345;42.694;23.346;2022-12-24T05:23:43;107.75;;;43.88;;
77287;SDS011;66345;42.694;23.346;2022-12-24T05:26:33;107.53;;;45.23;;
77287;SDS011;66345;42.694;23.346;2022-12-24T05:29:06;107.63;;;48.47;;
77287;SDS011;66345;42.694;23.346;2022-12-24T05:31:33;103.68;;;45.78;;
77287;SDS011;66345;42.694;23.346;2022-12-24T05:34:00;102.50;;;46.00;;
77287;SDS011;66345;42.694;23.346;2022-12-24T05:36:26;101.38;;;46.05;;
77287;SDS011;66345;42.694;23.346;2022-12-24T05:38:51;99.33;;;43.87;;
77287;SDS011;66345;42.694;23.346;2022-12-24T05:41:17;101.30;;;46.75;;
77287;SDS011;66345;42.694;23.346;2022-12-24T05:43:43;100.90;;;45.10;;
77287;SDS011;66345;42.694;23.346;2022-12-24T05:46:09;98.87;;;43.77;;
77287;SDS011;66345;42.694;23.346;2022-12-24T05:48:37;92.00;;;40.72;;
77287;SDS011;66345;42.694;23.346;2022-12-24T05:51:03;88.03;;;39.03;;
77287;SDS011;66345;42.694;23.346;2022-12-24T05:53:31;90.07;;;38.53;;
77287;SDS011;66345;42.694;23.346;2022-12-24T05:56:04;87.33;;;38.50;;
77287;SDS011;66345;42.694;23.346;2022-12-24T05:58:30;89.03;;;40.38;;
77287;SDS011;66345;42.694;23.346;2022-12-24T06:00:56;93.97;;;41.33;;
77287;SDS011;66345;42.694;23.346;2022-12-24T06:03:21;90.35;;;39.58;;
77287;SDS011;66345;42.694;23.346;2022-12-24T06:05:47;91.17;;;40.20;;
77287;SDS011;66345;42.694;23.346;2022-12-24T06:08:12;90.67;;;38.13;;
77287;SDS011;66345;42.694;23.346;2022-12-24T06:10:38;89.68;;;40.30;;
77287;SDS011;66345;42.694;23.346;2022-12-24T06:13:05;91.20;;;40.13;;
77287;SDS011;66345;42.694;23.346;2022-12-24T06:15:32;98.10;;;41.53;;
77287;SDS011;66345;42.694;23.346;2022-12-24T06:18:00;93.53;;;39.60;;
77287;SDS011;66345;42.694;23.346;2022-12-24T06:20:27;93.67;;;38.77;;
77287;SDS011;66345;42.694;23.346;2022-12-24T06:22:52;96.30;;;39.47;;
77287;SDS011;66345;42.694;23.346;2022-12-24T06:25:17;78.67;;;36.80;;
77287;SDS011;66345;42.694;23.346;2022-12-24T06:27:43;80.10;;;35.97;;
77287;SDS011;66345;42.694;23.346;2022-12-24T06:30:08;82.00;;;37.70;;
77287;SDS011;66345;42.694;23.346;2022-12-24T06:32:34;80.40;;;35.40;;
77287;SDS011;66345;42.694;23.346;2022-12-24T06:35:00;83.05;;;36.17;;
77287;SDS011;66345;42.694;23.346;2022-12-24T06:37:25;80.23;;;36.03;;
77287;SDS011;66345;42.694;23.346;2022-12-24T06:39:51;78.73;;;36.50;;
77287;SDS011;66345;42.694;23.346;2022-12-24T06:42:16;76.73;;;36.60;;
77287;SDS011;66345;42.694;23.346;2022-12-24T06:44:42;82.88;;;36.65;;
77287;SDS011;66345;42.694;23.346;2022-12-24T06:47:07;87.40;;;38.80;;
77287;SDS011;66345;42.694;23.346;2022-12-24T06:49:33;91.87;;;40.47;;
77287;SDS011;66345;42.694;23.346;2022-12-24T06:51:58;88.63;;;41.60;;
77287;SDS011;66345;42.694;23.346;2022-12-24T06:54:23;96.30;;;42.20;;
77287;SDS011;66345;42.694;23.346;2022-12-24T06:56:49;96.57;;;42.50;;
77287;SDS011;66345;42.694;23.346;2022-12-24T06:59:15;91.22;;;42.33;;
77287;SDS011;66345;42.694;23.346;2022-12-24T07:01:41;99.13;;;43.50;;
77287;SDS011;66345;42.694;23.346;2022-12-24T07:04:06;93.93;;;43.93;;
77287;SDS011;66345;42.694;23.346;2022-12-24T07:06:31;98.80;;;46.30;;
77287;SDS011;66345;42.694;23.346;2022-12-24T07:08:58;103.68;;;45.67;;
77287;SDS011;66345;42.694;23.346;2022-12-24T07:11:24;98.72;;;45.85;;
77287;SDS011;66345;42.694;23.346;2022-12-24T07:13:50;93.70;;;44.63;;
77287;SDS011;66345;42.694;23.346;2022-12-24T07:16:16;99.25;;;46.97;;
77287;SDS011;66345;42.694;23.346;2022-12-24T07:18:42;107.53;;;48.30;;
77287;SDS011;66345;42.694;23.346;2022-12-24T07:21:07;107.18;;;50.05;;
77287;SDS011;66345;42.694;23.346;2022-12-24T07:23:33;108.53;;;49.57;;
77287;SDS011;66345;42.694;23.346;2022-12-24T07:25:59;124.97;;;53.78;;
77287;SDS011;66345;42.694;23.346;2022-12-24T07:28:26;113.43;;;51.57;;
77287;SDS011;66345;42.694;23.346;2022-12-24T07:30:52;119.00;;;54.05;;
77287;SDS011;66345;42.694;23.346;2022-12-24T07:33:18;125.60;;;55.35;;
77287;SDS011;66345;42.694;23.346;2022-12-24T07:35:43;114.73;;;51.73;;
77287;SDS011;66345;42.694;23.346;2022-12-24T07:38:09;120.43;;;53.97;;
77287;SDS011;66345;42.694;23.346;2022-12-24T07:40:34;119.65;;;54.00;;
77287;SDS011;66345;42.694;23.346;2022-12-24T07:43:00;119.80;;;52.47;;
77287;SDS011;66345;42.694;23.346;2022-12-24T07:45:25;116.53;;;51.37;;
77287;SDS011;66345;42.694;23.346;2022-12-24T07:47:51;110.80;;;50.53;;
77287;SDS011;66345;42.694;23.346;2022-12-24T07:50:16;105.82;;;50.17;;
77287;SDS011;66345;42.694;23.346;2022-12-24T07:52:43;105.83;;;49.80;;
77287;SDS011;66345;42.694;23.346;2022-12-24T07:55:09;104.45;;;49.03;;
77287;SDS011;66345;42.694;23.346;2022-12-24T07:57:35;109.37;;;49.87;;
77287;SDS011;66345;42.694;23.346;2022-12-24T08:00:01;101.40;;;49.70;;
77287;SDS011;66345;42.694;23.346;2022-12-24T08:02:28;106.38;;;51.90;;
77287;SDS011;66345;42.694;23.346;2022-12-24T08:04:53;107.63;;;49.53;;
77287;SDS011;66345;42.694;23.346;2022-12-24T08:07:19;106.27;;;50.47;;
77287;SDS011;66345;42.694;23.346;2022-12-24T08:09:44;113.43;;;51.80;;
77287;SDS011;66345;42.694;23.346;2022-12-24T08:12:10;106.72;;;50.80;;
77287;SDS011;66345;42.694;23.346;2022-12-24T08:14:36;106.03;;;50.57;;
77287;SDS011;66345;42.694;23.346;2022-12-24T08:17:03;108.90;;;51.42;;
77287;SDS011;66345;42.694;23.346;2022-12-24T08:19:30;104.07;;;50.67;;
77287;SDS011;66345;42.694;23.346;2022-12-24T08:21:55;97.50;;;46.97;;
77287;SDS011;66345;42.694;23.346;2022-12-24T08:24:21;99.23;;;49.33;;
77287;SDS011;66345;42.694;23.346;2022-12-24T08:26:46;101.45;;;48.75;;
77287;SDS011;66345;42.694;23.346;2022-12-24T08:29:12;100.23;;;49.40;;
77287;SDS011;66345;42.694;23.346;2022-12-24T08:31:37;87.37;;;46.97;;
77287;SDS011;66345;42.694;23.346;2022-12-24T08:34:03;90.25;;;45.72;;
77287;SDS011;66345;42.694;23.346;2022-12-24T08:36:29;87.10;;;44.83;;
77287;SDS011;66345;42.694;23.346;2022-12-24T08:38:55;80.32;;;44.03;;
77287;SDS011;66345;42.694;23.346;2022-12-24T08:41:21;86.30;;;44.23;;
77287;SDS011;66345;42.694;23.346;2022-12-24T08:43:46;87.03;;;45.50;;
77287;SDS011;66345;42.694;23.346;2022-12-24T08:46:12;95.00;;;45.90;;
77287;SDS011;66345;42.694;23.346;2022-12-24T08:48:37;82.97;;;44.67;;
77287;SDS011;66345;42.694;23.346;2022-12-24T08:51:07;85.75;;;44.67;;
77287;SDS011;66345;42.694;23.346;2022-12-24T08:53:34;87.45;;;46.08;;
77287;SDS011;66345;42.694;23.346;2022-12-24T08:56:02;82.30;;;41.97;;
77287;SDS011;66345;42.694;23.346;2022-12-24T08:58:30;86.10;;;43.80;;
77287;SDS011;66345;42.694;23.346;2022-12-24T09:00:56;88.83;;;44.07;;
77287;SDS011;66345;42.694;23.346;2022-12-24T09:03:22;90.45;;;44.08;;
77287;SDS011;66345;42.694;23.346;2022-12-24T09:05:47;86.97;;;46.40;;
77287;SDS011;66345;42.694;23.346;2022-12-24T09:08:12;87.83;;;44.60;;
77287;SDS011;66345;42.694;23.346;2022-12-24T09:10:38;82.38;;;45.65;;
77287;SDS011;66345;42.694;23.346;2022-12-24T09:13:03;90.73;;;44.67;;
77287;SDS011;66345;42.694;23.346;2022-12-24T09:15:29;87.23;;;47.40;;
77287;SDS011;66345;42.694;23.346;2022-12-24T09:17:54;89.27;;;47.10;;
77287;SDS011;66345;42.694;23.346;2022-12-24T09:20:20;85.88;;;43.22;;
77287;SDS011;66345;42.694;23.346;2022-12-24T09:22:45;82.67;;;44.10;;
77287;SDS011;66345;42.694;23.346;2022-12-24T09:25:11;78.80;;;40.27;;
77287;SDS011;66345;42.694;23.346;2022-12-24T09:27:36;89.00;;;42.63;;
77287;SDS011;66345;42.694;23.346;2022-12-24T09:30:03;71.30;;;39.90;;
77287;SDS011;66345;42.694;23.346;2022-12-24T09:32:29;77.63;;;39.50;;
77287;SDS011;66345;42.694;23.346;2022-12-24T09:34:54;70.32;;;36.35;;
77287;SDS011;66345;42.694;23.346;2022-12-24T09:37:20;70.03;;;37.03;;
77287;SDS011;66345;42.694;23.346;2022-12-24T09:39:45;75.27;;;37.20;;
77287;SDS011;66345;42.694;23.346;2022-12-24T09:42:33;71.53;;;37.83;;
77287;SDS011;66345;42.694;23.346;2022-12-24T09:48:03;82.50;;;40.95;;
77287;SDS011;66345;42.694;23.346;2022-12-24T09:53:20;77.17;;;40.30;;
77287;SDS011;66345;42.694;23.346;2022-12-24T09:55:51;73.50;;;37.92;;
77287;SDS011;66345;42.694;23.346;2022-12-24T09:58:22;74.07;;;32.97;;
77287;SDS011;66345;42.694;23.346;2022-12-24T10:01:00;58.25;;;29.63;;
77287;SDS011;66345;42.694;23.346;2022-12-24T10:03:26;59.07;;;29.20;;
77287;SDS011;66345;42.694;23.346;2022-12-24T10:05:56;53.80;;;29.05;;
77287;SDS011;66345;42.694;23.346;2022-12-24T10:11:24;52.70;;;26.95;;
77287;SDS011;66345;42.694;23.346;2022-12-24T10:16:57;48.23;;;25.83;;
77287;SDS011;66345;42.694;23.346;2022-12-24T10:19:22;50.20;;;27.23;;
77287;SDS011;66345;42.694;23.346;2022-12-24T10:24:36;47.03;;;25.27;;
77287;SDS011;66345;42.694;23.346;2022-12-24T10:27:14;45.67;;;24.37;;
77287;SDS011;66345;42.694;23.346;2022-12-24T10:29:44;49.60;;;25.05;;
77287;SDS011;66345;42.694;23.346;2022-12-24T10:32:20;46.88;;;25.30;;
77287;SDS011;66345;42.694;23.346;2022-12-24T10:34:59;44.30;;;25.35;;
77287;SDS011;66345;42.694;23.346;2022-12-24T10:37:30;49.38;;;27.20;;
77287;SDS011;66345;42.694;23.346;2022-12-24T10:39:56;46.10;;;26.70;;
77287;SDS011;66345;42.694;23.346;2022-12-24T10:42:42;48.38;;;26.45;;
77287;SDS011;66345;42.694;23.346;2022-12-24T10:45:13;53.75;;;27.45;;
77287;SDS011;66345;42.694;23.346;2022-12-24T10:47:42;48.90;;;26.52;;
77287;SDS011;66345;42.694;23.346;2022-12-24T10:50:15;53.17;;;26.52;;
77287;SDS011;66345;42.694;23.346;2022-12-24T10:52:48;46.22;;;25.38;;
77287;SDS011;66345;42.694;23.346;2022-12-24T10:55:21;46.00;;;25.80;;
77287;SDS011;66345;42.694;23.346;2022-12-24T10:57:56;51.40;;;27.03;;
77287;SDS011;66345;42.694;23.346;2022-12-24T11:00:26;48.92;;;27.27;;
77287;SDS011;66345;42.694;23.346;2022-12-24T11:05:37;48.92;;;26.63;;
77287;SDS011;66345;42.694;23.346;2022-12-24T11:08:05;52.30;;;27.08;;
77287;SDS011;66345;42.694;23.346;2022-12-24T11:10:39;49.90;;;27.20;;
77287;SDS011;66345;42.694;23.346;2022-12-24T11:13:21;50.20;;;26.85;;
77287;SDS011;66345;42.694;23.346;2022-12-24T11:18:28;52.28;;;28.20;;
77287;SDS011;66345;42.694;23.346;2022-12-24T11:20:55;52.88;;;28.83;;
77287;SDS011;66345;42.694;23.346;2022-12-24T11:23:25;52.20;;;28.37;;
77287;SDS011;66345;42.694;23.346;2022-12-24T11:25:52;55.15;;;29.83;;
77287;SDS011;66345;42.694;23.346;2022-12-24T11:28:22;55.50;;;29.30;;
77287;SDS011;66345;42.694;23.346;2022-12-24T11:30:57;60.42;;;30.95;;
77287;SDS011;66345;42.694;23.346;2022-12-24T11:33:46;62.42;;;29.80;;
77287;SDS011;66345;42.694;23.346;2022-12-24T11:36:21;51.58;;;28.65;;
77287;SDS011;66345;42.694;23.346;2022-12-24T11:38:52;52.10;;;27.00;;
77287;SDS011;66345;42.694;23.346;2022-12-24T11:41:21;49.78;;;28.23;;
77287;SDS011;66345;42.694;23.346;2022-12-24T11:43:48;46.78;;;26.95;;
77287;SDS011;66345;42.694;23.346;2022-12-24T11:48:43;45.70;;;24.77;;
77287;SDS011;66345;42.694;23.346;2022-12-24T11:51:24;42.80;;;24.25;;
77287;SDS011;66345;42.694;23.346;2022-12-24T11:56:39;44.38;;;23.92;;
77287;SDS011;66345;42.694;23.346;2022-12-24T11:59:11;44.78;;;21.25;;
77287;SDS011;66345;42.694;23.346;2022-12-24T12:04:48;31.33;;;16.98;;
77287;SDS011;66345;42.694;23.346;2022-12-24T12:07:18;32.45;;;16.73;;
77287;SDS011;66345;42.694;23.346;2022-12-24T12:09:58;32.53;;;17.45;;
77287;SDS011;66345;42.694;23.346;2022-12-24T12:12:31;29.13;;;17.33;;
77287;SDS011;66345;42.694;23.346;2022-12-24T12:15:11;33.70;;;17.20;;
77287;SDS011;66345;42.694;23.346;2022-12-24T12:17:54;32.30;;;18.08;;
77287;SDS011;66345;42.694;23.346;2022-12-24T12:20:30;33.97;;;18.98;;
77287;SDS011;66345;42.694;23.346;2022-12-24T12:25:51;42.08;;;21.65;;
77287;SDS011;66345;42.694;23.346;2022-12-24T12:28:21;34.27;;;20.33;;
77287;SDS011;66345;42.694;23.346;2022-12-24T12:30:58;40.15;;;22.80;;
77287;SDS011;66345;42.694;23.346;2022-12-24T12:33:45;43.35;;;23.60;;
77287;SDS011;66345;42.694;23.346;2022-12-24T12:39:26;55.17;;;28.85;;
77287;SDS011;66345;42.694;23.346;2022-12-24T12:58:15;58.20;;;30.75;;
77287;SDS011;66345;42.694;23.346;2022-12-24T13:00:48;57.00;;;30.48;;
77287;SDS011;66345;42.694;23.346;2022-12-24T13:06:29;59.42;;;29.92;;
77287;SDS011;66345;42.694;23.346;2022-12-24T13:09:29;47.80;;;28.17;;
77287;SDS011;66345;42.694;23.346;2022-12-24T13:12:25;52.40;;;28.23;;
77287;SDS011;66345;42.694;23.346;2022-12-24T13:15:06;53.88;;;29.98;;
77287;SDS011;66345;42.694;23.346;2022-12-24T13:20:30;53.83;;;30.40;;
77287;SDS011;66345;42.694;23.346;2022-12-24T13:22:58;62.08;;;33.35;;
77287;SDS011;66345;42.694;23.346;2022-12-24T13:25:31;57.15;;;30.00;;
77287;SDS011;66345;42.694;23.346;2022-12-24T13:30:50;55.22;;;29.52;;
77287;SDS011;66345;42.694;23.346;2022-12-24T13:36:05;51.67;;;28.93;;
77287;SDS011;66345;42.694;23.346;2022-12-24T13:38:33;52.50;;;27.90;;
77287;SDS011;66345;42.694;23.346;2022-12-24T13:44:13;51.47;;;27.75;;
77287;SDS011;66345;42.694;23.346;2022-12-24T13:46:45;48.53;;;27.75;;
77287;SDS011;66345;42.694;23.346;2022-12-24T13:51:42;56.33;;;29.77;;
77287;SDS011;66345;42.694;23.346;2022-12-24T13:54:08;52.58;;;29.17;;
77287;SDS011;66345;42.694;23.346;2022-12-24T13:56:37;53.75;;;28.40;;
77287;SDS011;66345;42.694;23.346;2022-12-24T13:59:11;57.37;;;30.10;;
77287;SDS011;66345;42.694;23.346;2022-12-24T14:01:49;58.80;;;28.35;;
77287;SDS011;66345;42.694;23.346;2022-12-24T14:04:22;56.05;;;29.15;;
77287;SDS011;66345;42.694;23.346;2022-12-24T14:06:53;52.77;;;28.87;;
77287;SDS011;66345;42.694;23.346;2022-12-24T14:09:25;56.20;;;29.77;;
77287;SDS011;66345;42.694;23.346;2022-12-24T14:14:39;57.22;;;31.02;;
77287;SDS011;66345;42.694;23.346;2022-12-24T14:19:45;64.37;;;33.13;;
77287;SDS011;66345;42.694;23.346;2022-12-24T14:22:18;60.40;;;32.80;;
77287;SDS011;66345;42.694;23.346;2022-12-24T14:25:12;61.15;;;34.75;;
77287;SDS011;66345;42.694;23.346;2022-12-24T14:32:47;65.63;;;34.30;;
77287;SDS011;66345;42.694;23.346;2022-12-24T14:38:04;63.42;;;34.30;;
77287;SDS011;66345;42.694;23.346;2022-12-24T14:41:35;71.05;;;37.13;;
77287;SDS011;66345;42.694;23.346;2022-12-24T14:52:26;71.68;;;38.05;;
77287;SDS011;66345;42.694;23.346;2022-12-24T14:58:12;81.97;;;39.83;;
77287;SDS011;66345;42.694;23.346;2022-12-24T15:00:43;82.63;;;42.50;;
77287;SDS011;66345;42.694;23.346;2022-12-24T15:03:16;78.90;;;42.60;;
77287;SDS011;66345;42.694;23.346;2022-12-24T15:05:44;84.15;;;45.22;;
77287;SDS011;66345;42.694;23.346;2022-12-24T15:08:15;89.70;;;46.28;;
77287;SDS011;66345;42.694;23.346;2022-12-24T15:10:44;87.05;;;45.65;;
77287;SDS011;66345;42.694;23.346;2022-12-24T15:15:49;74.88;;;40.60;;
77287;SDS011;66345;42.694;23.346;2022-12-24T15:18:17;72.30;;;39.37;;
77287;SDS011;66345;42.694;23.346;2022-12-24T15:20:51;70.32;;;37.10;;
77287;SDS011;66345;42.694;23.346;2022-12-24T15:23:21;59.80;;;33.13;;
77287;SDS011;66345;42.694;23.346;2022-12-24T15:26:04;43.15;;;23.45;;
77287;SDS011;66345;42.694;23.346;2022-12-24T15:28:50;36.60;;;19.75;;
77287;SDS011;66345;42.694;23.346;2022-12-24T15:31:18;36.57;;;19.90;;
77287;SDS011;66345;42.694;23.346;2022-12-24T15:33:47;38.70;;;19.80;;
77287;SDS011;66345;42.694;23.346;2022-12-24T15:36:15;31.80;;;17.88;;
77287;SDS011;66345;42.694;23.346;2022-12-24T15:38:50;29.92;;;17.27;;
77287;SDS011;66345;42.694;23.346;2022-12-24T15:41:18;32.15;;;15.13;;
77287;SDS011;66345;42.694;23.346;2022-12-24T15:43:47;21.90;;;12.88;;
77287;SDS011;66345;42.694;23.346;2022-12-24T15:46:19;20.45;;;11.02;;
77287;SDS011;66345;42.694;23.346;2022-12-24T15:48:47;21.33;;;11.48;;
77287;SDS011;66345;42.694;23.346;2022-12-24T15:51:19;19.10;;;10.60;;
77287;SDS011;66345;42.694;23.346;2022-12-24T15:53:47;18.85;;;10.50;;
77287;SDS011;66345;42.694;23.346;2022-12-24T15:56:35;18.87;;;9.73;;
77287;SDS011;66345;42.694;23.346;2022-12-24T15:59:37;16.88;;;9.02;;
77287;SDS011;66345;42.694;23.346;2022-12-24T16:04:46;16.70;;;8.90;;
77287;SDS011;66345;42.694;23.346;2022-12-24T16:07:22;16.57;;;8.80;;
77287;SDS011;66345;42.694;23.346;2022-12-24T16:09:49;16.73;;;9.63;;
77287;SDS011;66345;42.694;23.346;2022-12-24T16:12:16;19.53;;;9.53;;
77287;SDS011;66345;42.694;23.346;2022-12-24T16:14:45;21.20;;;11.68;;
77287;SDS011;66345;42.694;23.346;2022-12-24T16:17:18;24.17;;;12.50;;
77287;SDS011;66345;42.694;23.346;2022-12-24T16:19:49;29.65;;;16.05;;
77287;SDS011;66345;42.694;23.346;2022-12-24T16:22:19;41.27;;;22.67;;
77287;SDS011;66345;42.694;23.346;2022-12-24T16:24:56;75.95;;;40.33;;
77287;SDS011;66345;42.694;23.346;2022-12-24T16:27:40;108.70;;;55.92;;
77287;SDS011;66345;42.694;23.346;2022-12-24T16:30:05;115.53;;;62.20;;
77287;SDS011;66345;42.694;23.346;2022-12-24T16:32:33;123.07;;;63.45;;
77287;SDS011;66345;42.694;23.346;2022-12-24T16:35:01;122.85;;;63.25;;
77287;SDS011;66345;42.694;23.346;2022-12-24T16:37:27;125.93;;;64.10;;
77287;SDS011;66345;42.694;23.346;2022-12-24T16:39:53;116.43;;;59.43;;
77287;SDS011;66345;42.694;23.346;2022-12-24T16:42:19;105.15;;;54.55;;
77287;SDS011;66345;42.694;23.346;2022-12-24T16:45:03;102.05;;;53.17;;
77287;SDS011;66345;42.694;23.346;2022-12-24T16:47:30;101.32;;;53.42;;
77287;SDS011;66345;42.694;23.346;2022-12-24T16:49:57;92.50;;;47.88;;
77287;SDS011;66345;42.694;23.346;2022-12-24T16:52:27;82.28;;;44.97;;
77287;SDS011;66345;42.694;23.346;2022-12-24T16:54:56;83.67;;;43.57;;
77287;SDS011;66345;42.694;23.346;2022-12-24T16:57:22;77.95;;;42.78;;
77287;SDS011;66345;42.694;23.346;2022-12-24T16:59:49;78.43;;;39.63;;
77287;SDS011;66345;42.694;23.346;2022-12-24T17:02:16;74.07;;;37.35;;
77287;SDS011;66345;42.694;23.346;2022-12-24T17:04:44;63.65;;;32.38;;
77287;SDS011;66345;42.694;23.346;2022-12-24T17:07:10;46.47;;;25.17;;